Skip Navigation LinksHome page > Tools > METAR decoder Skip Navigation Links

METAR decoder

Settings

METAR

Chicago O'Hare Intl, Chicago

For information only: do not use for flight planning or navigation.
Latest weather
Observation time Friday, May 29, 2015 4:51 AM CDT
Local time Friday, May 29, 2015 5:03 AM CDT
Flight conditions Visual Meteorological Conditions
Winds
Wind direction South-Southeast (150°)
Wind speed 6 mph
Visibility 10 mi.
Sky condition
Ceiling 22,000 ft. overcast
Cloud layer overcast 22,000 ft.
Temperature 65°F
Dewpoint 60°F
Altimeter 30.01 in.Hg
Derived measurements
Relative humidity 84%
Density altitude 1198 ft.
Sea-level pressure 30.00 in.Hg
Remarks
Automated weather observing station with precipitation discriminator.
METAR KORD 290951Z 15005KT 10SM OVC220 18/16 A3001 RMK AO2 SLP159 T01830156

InnerDrive.Weather 4.0.5567.0 Release CLR 4.0.30319.34014
Copyright ©2015 Inner Drive Technology. All rights reserved. Portions Copyright ©1986-2015 David Braverman.

Find weather

Site navigation


Skip Navigation Links

Place info

Page info

PayPal - The safer, easier way to pay online!

Return home.

Copyright ©2015 Inner Drive Technology. Purveyors of fine, hand-crafted computer software. Page printed 2015-05-29T10:03:29 UTC.